Ramore, Canada
Current Conditions -  °F | °C
As of 9:00 PM on Saturday 22 Nov 2014 (Local Time) from CYTS Reporting Station
Light Snow Light Snow  
Wind Chill: 26°   Ceiling: 700
Heat Index: 32°   Visibility: 3mi
Dew Point: 32°   Wind: 7mph
Humidity: 100%   Direction: 290°WNW
Pressure: 29.69"   Gusts: NA
Location:  48.42°N, 80.32°W
Report Text: CYTS 230200Z 29006KT 3SM -SN BKN007 OVC017 00/M00 A2969 RMK SF6SC2 SLP067
Loading
Personal Weather Stations






























Interactive Weather Map New forecast layout! Learn more

10-Day Weather Forecast

Advertisements
Track Severe Weather on mobile